createdAt,value
2022-08-16T00:01:21.517Z,11.20
2022-08-16T00:03:51.386Z,10.50
2022-08-16T00:06:29.304Z,13.43
2022-08-16T00:08:55.747Z,12.07
2022-08-16T00:11:22.542Z,11.03
2022-08-16T00:13:54.040Z,10.53
2022-08-16T00:17:01.027Z,13.27
2022-08-16T00:19:23.132Z,8.80
2022-08-16T00:21:53.327Z,10.73
2022-08-16T00:24:32.263Z,8.97
2022-08-16T00:27:01.052Z,9.60
2022-08-16T00:29:29.589Z,8.23
2022-08-16T00:32:05.295Z,10.90
2022-08-16T00:34:43.446Z,10.80
2022-08-16T00:37:17.287Z,13.43
2022-08-16T00:39:57.217Z,12.27
2022-08-16T00:42:30.605Z,12.20
2022-08-16T00:45:09.695Z,14.77
2022-08-16T00:47:49.312Z,12.57
2022-08-16T00:50:36.235Z,11.90
2022-08-16T00:53:05.070Z,15.97
2022-08-16T00:55:37.774Z,16.87
2022-08-16T00:58:13.027Z,13.40
2022-08-16T01:00:53.933Z,12.37
2022-08-16T01:03:30.003Z,9.90
2022-08-16T01:05:59.267Z,10.53
2022-08-16T01:08:36.120Z,12.13
2022-08-16T01:11:05.260Z,15.37
2022-08-16T01:13:35.479Z,15.40
2022-08-16T01:16:19.976Z,12.20
2022-08-16T01:19:07.703Z,12.90
2022-08-16T01:22:49.928Z,17.03
2022-08-16T01:25:06.110Z,12.07
2022-08-16T01:27:39.056Z,9.50
2022-08-16T01:30:19.578Z,10.87
2022-08-16T01:32:59.599Z,10.47
2022-08-16T01:35:53.394Z,16.00
2022-08-16T01:38:25.556Z,15.50
2022-08-16T01:40:57.083Z,13.20
2022-08-16T01:43:25.153Z,13.87
2022-08-16T01:45:58.369Z,15.43
2022-08-16T01:48:28.729Z,14.40
2022-08-16T01:51:09.451Z,11.53
2022-08-16T01:53:43.445Z,11.33
2022-08-16T01:56:32.147Z,13.30
2022-08-16T01:59:01.874Z,11.77
2022-08-16T02:01:31.949Z,12.60
2022-08-16T02:04:10.283Z,12.13
2022-08-16T02:06:46.004Z,13.13
2022-08-16T02:09:22.770Z,13.27
2022-08-16T02:11:56.378Z,13.63
2022-08-16T02:14:27.408Z,12.23
2022-08-16T02:16:58.055Z,16.80
2022-08-16T02:19:59.758Z,13.90
2022-08-16T02:22:33.735Z,15.13
2022-08-16T02:25:11.899Z,13.90
2022-08-16T02:27:43.059Z,13.73
2022-08-16T02:30:36.520Z,11.57
2022-08-16T02:33:04.342Z,19.23
2022-08-16T02:35:32.696Z,15.77
2022-08-16T02:38:08.694Z,12.50
2022-08-16T02:40:36.480Z,13.30
2022-08-16T02:43:04.529Z,14.17
2022-08-16T02:45:32.293Z,15.47
2022-08-16T02:48:01.818Z,13.43
2022-08-16T02:50:53.545Z,13.77
2022-08-16T02:53:29.865Z,14.00
2022-08-16T02:55:57.293Z,11.33
2022-08-16T02:58:25.204Z,16.43
2022-08-16T03:00:55.979Z,13.77
2022-08-16T03:03:24.927Z,14.43
2022-08-16T03:05:53.226Z,13.70
2022-08-16T03:08:51.316Z,10.53
2022-08-16T03:11:16.434Z,12.97
2022-08-16T03:13:56.526Z,13.77
2022-08-16T03:16:37.661Z,12.67
2022-08-16T03:19:08.267Z,13.33
2022-08-16T03:21:38.299Z,13.73
2022-08-16T03:24:29.060Z,14.43
2022-08-16T03:26:58.912Z,11.27
2022-08-16T03:29:30.035Z,11.40
2022-08-16T03:31:59.666Z,9.83
2022-08-16T03:34:29.787Z,16.70
2022-08-16T03:36:56.772Z,10.47
2022-08-16T03:39:23.802Z,14.73
2022-08-16T03:41:59.261Z,14.60
2022-08-16T03:44:43.894Z,13.03
2022-08-16T03:47:18.932Z,14.67
2022-08-16T03:49:51.282Z,12.13
2022-08-16T03:52:23.431Z,13.40
2022-08-16T03:54:58.219Z,15.43
2022-08-16T03:57:32.053Z,17.30
2022-08-16T04:00:20.648Z,13.83
2022-08-16T04:03:09.456Z,17.70
2022-08-16T04:05:46.939Z,17.73
2022-08-16T04:08:23.954Z,20.53
2022-08-16T04:10:58.213Z,14.10
2022-08-16T04:13:59.062Z,14.07
2022-08-16T04:16:26.782Z,13.40
2022-08-16T04:19:01.411Z,16.63
2022-08-16T04:21:32.668Z,14.70
2022-08-16T04:24:00.814Z,13.67
2022-08-16T04:26:30.809Z,14.67
2022-08-16T04:29:17.115Z,13.33
2022-08-16T04:31:56.385Z,11.03
2022-08-16T04:34:30.015Z,14.13
2022-08-16T04:37:01.453Z,14.53
2022-08-16T04:39:45.678Z,12.90
2022-08-16T04:42:26.220Z,11.27
2022-08-16T04:44:58.366Z,10.77
2022-08-16T04:47:35.518Z,11.83
2022-08-16T04:50:09.782Z,10.67
2022-08-16T04:52:38.144Z,10.90
2022-08-16T04:55:09.000Z,12.80
2022-08-16T04:57:38.036Z,10.60
2022-08-16T05:00:31.750Z,9.20
2022-08-16T05:03:07.443Z,10.37
2022-08-16T05:05:45.335Z,9.80
2022-08-16T05:08:28.985Z,10.67
2022-08-16T05:11:15.803Z,8.67
2022-08-16T05:13:47.818Z,9.97
2022-08-16T05:16:25.620Z,11.77
2022-08-16T05:18:59.524Z,10.83
2022-08-16T05:21:38.195Z,10.60
2022-08-16T05:24:08.953Z,10.03
2022-08-16T05:26:40.720Z,15.47
2022-08-16T05:29:07.567Z,12.23
2022-08-16T05:31:44.288Z,10.67
2022-08-16T05:34:20.157Z,12.47
2022-08-16T05:36:51.354Z,10.97
2022-08-16T05:39:20.577Z,9.10
2022-08-16T05:41:49.013Z,12.27
2022-08-16T05:44:23.982Z,9.90
2022-08-16T05:46:57.277Z,10.33
2022-08-16T05:49:38.332Z,9.33
2022-08-16T05:52:11.392Z,8.97
2022-08-16T05:54:47.083Z,11.77
2022-08-16T05:57:20.678Z,9.10
2022-08-16T05:59:59.751Z,9.47
2022-08-16T06:02:39.209Z,7.90
2022-08-16T06:05:14.676Z,9.40
2022-08-16T06:07:43.934Z,8.43
2022-08-16T06:10:32.976Z,9.00
2022-08-16T06:13:02.457Z,9.00
2022-08-16T06:15:30.711Z,9.60
2022-08-16T06:17:59.271Z,10.20
2022-08-16T06:20:35.309Z,7.83
2022-08-16T06:23:16.920Z,7.60
2022-08-16T06:26:08.440Z,9.00
2022-08-16T06:28:42.996Z,8.77
2022-08-16T06:31:16.947Z,10.30
2022-08-16T06:33:51.692Z,8.23
2022-08-16T06:36:21.761Z,7.10
2022-08-16T06:39:08.822Z,6.80
2022-08-16T06:41:57.553Z,6.87
2022-08-16T06:44:42.772Z,7.77
2022-08-16T06:47:53.412Z,8.03
2022-08-16T06:50:28.746Z,7.20
2022-08-16T06:53:00.582Z,7.10
2022-08-16T06:55:34.142Z,7.40
2022-08-16T06:58:08.354Z,9.47
2022-08-16T07:00:37.792Z,10.47
2022-08-16T07:03:28.006Z,8.37
2022-08-16T07:05:57.023Z,7.53
2022-08-16T07:08:28.939Z,7.07
2022-08-16T07:10:56.814Z,6.30
2022-08-16T07:14:00.287Z,6.60
2022-08-16T07:16:16.683Z,7.30
2022-08-16T07:18:58.900Z,8.97
2022-08-16T07:21:26.856Z,6.67
2022-08-16T07:23:58.052Z,5.93
2022-08-16T07:26:34.105Z,7.20
2022-08-16T07:29:02.677Z,6.95
2022-08-16T07:31:37.864Z,7.65
2022-08-16T07:34:10.200Z,7.27
2022-08-16T07:36:38.472Z,6.80
2022-08-16T07:39:06.254Z,6.73
2022-08-16T07:41:36.178Z,6.60
2022-08-16T07:44:16.365Z,7.43
2022-08-16T07:46:45.040Z,7.63
2022-08-16T07:49:19.011Z,6.43
2022-08-16T07:51:46.786Z,7.13
2022-08-16T07:54:21.222Z,7.90
2022-08-16T07:56:59.186Z,6.10
2022-08-16T07:59:26.080Z,6.50
2022-08-16T08:02:12.248Z,9.02
2022-08-16T08:04:41.088Z,8.63
2022-08-16T08:07:08.959Z,10.02
2022-08-16T08:09:36.332Z,11.88
2022-08-16T08:12:31.915Z,6.35
2022-08-16T08:14:58.155Z,7.00
2022-08-16T08:17:25.303Z,5.88
2022-08-16T08:20:20.795Z,7.55
2022-08-16T08:23:01.148Z,6.85
2022-08-16T08:25:54.324Z,8.15
2022-08-16T08:28:23.184Z,7.97
2022-08-16T08:31:01.486Z,6.38
2022-08-16T08:33:32.464Z,5.90
2022-08-16T08:36:05.140Z,6.97
2022-08-16T08:38:45.883Z,6.13
2022-08-16T08:41:19.730Z,6.28
2022-08-16T08:43:54.930Z,6.43
2022-08-16T08:46:23.502Z,6.03
2022-08-16T08:48:59.157Z,7.43
2022-08-16T08:51:35.825Z,7.50
2022-08-16T08:54:06.529Z,7.63
2022-08-16T08:56:37.256Z,5.70
2022-08-16T08:59:16.463Z,8.70
2022-08-16T09:01:56.480Z,6.90
2022-08-16T09:04:25.283Z,7.38
2022-08-16T09:06:53.888Z,6.05
2022-08-16T09:09:22.706Z,7.53
2022-08-16T09:12:04.178Z,6.40
2022-08-16T09:14:49.398Z,5.28
2022-08-16T09:17:38.261Z,5.25
2022-08-16T09:20:08.279Z,5.68
2022-08-16T09:22:35.221Z,5.88
2022-08-16T09:25:12.609Z,6.55
2022-08-16T09:27:56.528Z,6.80
2022-08-16T09:30:34.632Z,5.68
2022-08-16T09:33:24.252Z,7.40
2022-08-16T09:35:52.912Z,5.90
2022-08-16T09:38:31.472Z,6.30
2022-08-16T09:41:00.784Z,6.10
2022-08-16T09:44:00.619Z,7.70
2022-08-16T09:46:45.352Z,7.63
2022-08-16T09:49:04.405Z,6.60
2022-08-16T09:51:36.821Z,5.93
2022-08-16T09:54:05.709Z,8.98
2022-08-16T09:56:34.886Z,7.47
2022-08-16T09:59:07.272Z,6.70
2022-08-16T10:01:36.615Z,6.80
2022-08-16T10:04:06.996Z,6.65
2022-08-16T10:06:52.724Z,7.10
2022-08-16T10:09:20.247Z,6.20
2022-08-16T10:12:11.770Z,6.18
2022-08-16T10:14:46.787Z,6.03
2022-08-16T10:17:14.661Z,6.43
2022-08-16T10:19:41.431Z,7.43
2022-08-16T10:22:12.690Z,6.18
2022-08-16T10:24:40.435Z,6.50
2022-08-16T10:27:27.295Z,6.43
2022-08-16T10:30:25.840Z,6.30
2022-08-16T10:32:55.183Z,5.22
2022-08-16T10:35:22.030Z,7.80
2022-08-16T10:37:52.206Z,5.93
2022-08-16T10:40:30.140Z,6.38
2022-08-16T10:43:02.063Z,7.07
2022-08-16T10:45:36.667Z,6.90
2022-08-16T10:48:27.713Z,6.82
2022-08-16T10:50:53.854Z,6.57
2022-08-16T10:53:22.274Z,8.57
2022-08-16T10:55:48.875Z,6.20
2022-08-16T10:58:33.958Z,9.50
2022-08-16T11:01:24.929Z,6.95
2022-08-16T11:03:49.071Z,5.97
2022-08-16T11:06:26.861Z,6.30
2022-08-16T11:14:33.815Z,6.20
2022-08-16T11:17:11.052Z,7.30
2022-08-16T11:22:47.079Z,7.78
2022-08-16T11:28:09.586Z,6.68
2022-08-16T11:30:39.342Z,7.00
2022-08-16T11:33:07.452Z,7.00
2022-08-16T11:38:47.665Z,6.85
2022-08-16T11:41:09.849Z,6.50
2022-08-16T11:43:38.333Z,7.13
2022-08-16T11:46:42.922Z,7.63
2022-08-16T11:48:55.590Z,7.03
2022-08-16T11:51:22.549Z,6.13
2022-08-16T11:53:49.434Z,7.45
2022-08-16T11:56:16.350Z,7.53
2022-08-16T11:58:56.958Z,6.63
2022-08-16T12:01:29.894Z,6.70
2022-08-16T12:04:13.350Z,7.60
2022-08-16T12:06:40.099Z,6.32
2022-08-16T12:09:07.939Z,6.90
2022-08-16T12:11:36.694Z,6.40
2022-08-16T12:14:05.482Z,6.45
2022-08-16T12:16:34.136Z,6.00
2022-08-16T12:19:05.423Z,5.88
2022-08-16T12:21:35.967Z,6.65
2022-08-16T12:24:20.378Z,7.70
2022-08-16T12:26:47.268Z,6.00
2022-08-16T12:29:16.954Z,5.85
2022-08-16T12:32:00.669Z,5.60
2022-08-16T12:34:30.234Z,5.88
2022-08-16T12:36:56.893Z,6.13
2022-08-16T12:39:24.001Z,7.45
2022-08-16T12:41:57.628Z,5.50
2022-08-16T12:44:26.345Z,5.95
2022-08-16T12:47:18.310Z,8.32
2022-08-16T12:49:45.302Z,6.88
2022-08-16T12:52:33.056Z,6.88
2022-08-16T12:55:00.225Z,5.43
2022-08-16T12:57:36.825Z,5.60
2022-08-16T13:00:28.708Z,5.32
2022-08-16T13:03:03.933Z,7.60
2022-08-16T13:05:42.880Z,6.57
2022-08-16T13:08:21.292Z,5.55
2022-08-16T13:10:51.729Z,5.97
2022-08-16T13:13:25.510Z,5.40
2022-08-16T13:16:00.863Z,5.50
2022-08-16T13:18:34.461Z,6.03
2022-08-16T13:21:05.092Z,5.30
2022-08-16T13:23:32.304Z,5.03
2022-08-16T13:25:59.466Z,8.18
2022-08-16T13:28:26.355Z,5.40
2022-08-16T13:30:56.146Z,4.85
2022-08-16T13:33:29.753Z,6.63
2022-08-16T13:35:59.274Z,6.38
2022-08-16T13:38:35.181Z,6.10
2022-08-16T13:41:05.790Z,5.47
2022-08-16T13:43:35.923Z,5.93
2022-08-16T13:46:04.767Z,6.22
2022-08-16T13:48:43.230Z,5.63
2022-08-16T13:51:16.662Z,7.18
2022-08-16T13:53:59.935Z,5.45
2022-08-16T13:56:37.906Z,6.35
2022-08-16T13:59:19.942Z,5.68
2022-08-16T14:01:55.475Z,5.50
2022-08-16T14:04:26.809Z,5.20
2022-08-16T14:06:57.951Z,5.65
2022-08-16T14:09:27.100Z,5.47
2022-08-16T14:11:54.369Z,5.28
2022-08-16T14:14:28.494Z,8.27
2022-08-16T14:16:58.212Z,9.00
2022-08-16T14:19:26.410Z,4.93
2022-08-16T14:22:13.571Z,5.72
2022-08-16T14:24:46.720Z,4.75
2022-08-16T14:27:15.476Z,5.90
2022-08-16T14:29:42.447Z,5.40
2022-08-16T14:32:13.137Z,5.63
2022-08-16T14:34:52.605Z,6.13
2022-08-16T14:37:22.811Z,5.75
2022-08-16T14:39:49.812Z,6.85
2022-08-16T14:42:24.368Z,6.68
2022-08-16T14:45:00.483Z,5.65
2022-08-16T14:47:34.174Z,5.45
2022-08-16T14:50:01.834Z,5.55
2022-08-16T14:52:53.942Z,6.57
2022-08-16T14:55:17.150Z,5.72
2022-08-16T14:57:43.633Z,5.70
2022-08-16T15:00:13.434Z,8.20
2022-08-16T15:02:42.406Z,6.28
2022-08-16T15:05:11.645Z,7.00
2022-08-16T15:07:40.276Z,5.95
2022-08-16T15:10:08.399Z,6.30
2022-08-16T15:12:49.592Z,5.78
2022-08-16T15:15:20.437Z,5.07
2022-08-16T15:17:53.893Z,6.13
2022-08-16T15:20:22.930Z,4.95
2022-08-16T15:22:53.936Z,5.63
2022-08-16T15:25:34.006Z,5.32
2022-08-16T15:28:04.652Z,5.60
2022-08-16T15:30:57.524Z,7.07
2022-08-16T15:33:24.575Z,5.72
2022-08-16T15:35:55.202Z,5.32
2022-08-16T15:38:56.901Z,6.13
2022-08-16T15:41:09.587Z,6.38
2022-08-16T15:43:40.457Z,6.03
2022-08-16T15:46:34.973Z,6.63
2022-08-16T15:49:11.354Z,5.38
2022-08-16T15:51:39.413Z,4.85
2022-08-16T15:54:29.008Z,5.25
2022-08-16T15:56:55.048Z,6.35
2022-08-16T15:59:24.238Z,7.25
2022-08-16T16:01:57.089Z,5.13
2022-08-16T16:04:28.452Z,5.95
2022-08-16T16:06:56.605Z,4.63
2022-08-16T16:09:36.539Z,6.47
2022-08-16T16:12:27.470Z,4.85
2022-08-16T16:14:52.852Z,5.43
2022-08-16T16:17:19.316Z,6.45
2022-08-16T16:19:49.706Z,6.28
2022-08-16T16:22:21.358Z,7.13
2022-08-16T16:24:49.189Z,8.02
2022-08-16T16:27:21.778Z,6.03
2022-08-16T16:29:50.858Z,6.63
2022-08-16T16:32:34.082Z,6.40
2022-08-16T16:35:02.405Z,8.05
2022-08-16T16:37:31.020Z,7.68
2022-08-16T16:39:58.215Z,5.22
2022-08-16T16:42:29.531Z,6.22
2022-08-16T16:45:01.597Z,5.35
2022-08-16T16:47:30.024Z,5.30
2022-08-16T16:50:09.145Z,4.95
2022-08-16T16:52:43.856Z,5.25
2022-08-16T16:55:15.185Z,5.30
2022-08-16T16:58:03.311Z,5.10
2022-08-16T17:00:37.559Z,6.93
2022-08-16T17:03:06.338Z,5.30
2022-08-16T17:05:43.699Z,6.40
2022-08-16T17:08:23.970Z,5.63
2022-08-16T17:10:52.486Z,8.75
2022-08-16T17:13:20.966Z,5.53
2022-08-16T17:15:54.233Z,7.85
2022-08-16T17:19:16.627Z,8.02
2022-08-16T17:21:09.283Z,5.95
2022-08-16T17:23:58.954Z,5.43
2022-08-16T17:26:29.804Z,6.90
2022-08-16T17:29:02.311Z,8.93
2022-08-16T17:31:40.873Z,6.70
2022-08-16T17:34:29.415Z,7.93
2022-08-16T17:36:59.404Z,7.63
2022-08-16T17:39:29.586Z,5.90
2022-08-16T17:42:13.286Z,5.85
2022-08-16T17:44:39.856Z,6.10
2022-08-16T17:47:06.355Z,6.22
2022-08-16T17:49:32.798Z,7.10
2022-08-16T17:51:59.379Z,6.35
2022-08-16T17:54:30.722Z,10.05
2022-08-16T17:57:00.847Z,5.88
2022-08-16T17:59:28.145Z,6.43
2022-08-16T18:01:55.686Z,6.35
2022-08-16T18:04:49.464Z,6.68
2022-08-16T18:07:10.295Z,6.05
2022-08-16T18:09:36.976Z,6.32
2022-08-16T18:12:44.854Z,7.78
2022-08-16T18:15:13.323Z,9.13
2022-08-16T18:17:40.229Z,6.63
2022-08-16T18:20:28.886Z,6.32
2022-08-16T18:23:03.526Z,6.78
2022-08-16T18:25:30.224Z,7.45
2022-08-16T18:27:56.669Z,6.35
2022-08-16T18:30:23.122Z,8.70
2022-08-16T18:32:50.417Z,6.78
2022-08-16T18:35:18.813Z,7.85
2022-08-16T18:37:45.959Z,6.18
2022-08-16T18:40:14.961Z,6.10
2022-08-16T18:42:52.888Z,6.10
2022-08-16T18:45:19.320Z,6.00
2022-08-16T18:47:46.204Z,6.78
2022-08-16T18:50:12.970Z,7.20
2022-08-16T18:52:50.776Z,6.15
2022-08-16T18:55:17.446Z,6.13
2022-08-16T18:57:44.874Z,5.97
2022-08-16T19:00:14.894Z,6.15
2022-08-16T19:02:58.827Z,6.38
2022-08-16T19:05:27.310Z,8.63
2022-08-16T19:07:53.776Z,6.55
2022-08-16T19:10:20.686Z,6.70
2022-08-16T19:12:47.733Z,6.32
2022-08-16T19:15:21.825Z,6.97
2022-08-16T19:17:48.572Z,7.15
2022-08-16T19:20:18.281Z,7.07
2022-08-16T19:23:05.823Z,6.63
2022-08-16T19:25:47.883Z,6.93
2022-08-16T19:28:49.099Z,7.57
2022-08-16T19:31:25.937Z,7.82
2022-08-16T19:33:56.255Z,7.03
2022-08-16T19:36:31.980Z,7.28
2022-08-16T19:39:05.182Z,8.27
2022-08-16T19:41:43.791Z,6.90
2022-08-16T19:44:10.867Z,7.50
2022-08-16T19:46:38.317Z,7.25
2022-08-16T19:49:05.538Z,7.70
2022-08-16T19:51:32.411Z,7.63
2022-08-16T19:53:58.894Z,7.15
2022-08-16T19:56:26.555Z,8.13
2022-08-16T19:59:18.174Z,7.35
2022-08-16T20:01:42.509Z,6.97
2022-08-16T20:04:13.135Z,6.45
2022-08-16T20:06:41.175Z,6.78
2022-08-16T20:09:07.627Z,7.05
2022-08-16T20:11:35.367Z,7.10
2022-08-16T20:14:02.902Z,7.85
2022-08-16T20:16:29.650Z,6.63
2022-08-16T20:18:56.122Z,6.45
2022-08-16T20:21:22.823Z,7.18
2022-08-16T20:23:49.315Z,7.55
2022-08-16T20:26:16.303Z,8.90
2022-08-16T20:28:52.402Z,6.57
2022-08-16T20:31:24.741Z,8.45
2022-08-16T20:33:51.978Z,7.03
2022-08-16T20:36:19.344Z,7.50
2022-08-16T20:38:47.988Z,7.75
2022-08-16T20:41:16.453Z,7.10
2022-08-16T20:43:43.507Z,9.27
2022-08-16T20:46:12.466Z,8.05
2022-08-16T20:48:38.885Z,8.45
2022-08-16T20:51:06.784Z,8.18
2022-08-16T20:53:33.947Z,8.60
2022-08-16T20:56:00.544Z,9.30
2022-08-16T20:58:27.179Z,8.98
2022-08-16T21:00:53.700Z,8.20
2022-08-16T21:03:20.534Z,8.23
2022-08-16T21:05:47.515Z,7.68
2022-08-16T21:08:49.977Z,9.85
2022-08-16T21:11:08.671Z,7.60
2022-08-16T21:13:39.261Z,8.27
2022-08-16T21:16:08.775Z,8.02
2022-08-16T21:18:35.230Z,8.57
2022-08-16T21:21:01.705Z,7.88
2022-08-16T21:23:28.212Z,8.27
2022-08-16T21:25:58.994Z,7.22
2022-08-16T21:28:41.133Z,8.48
2022-08-16T21:31:15.063Z,8.13
2022-08-16T21:33:43.091Z,8.50
2022-08-16T21:36:11.089Z,8.73
2022-08-16T21:38:38.920Z,7.35
2022-08-16T21:41:07.171Z,9.27
2022-08-16T21:43:34.621Z,7.70
2022-08-16T21:46:01.947Z,9.90
2022-08-16T21:48:34.735Z,7.97
2022-08-16T21:51:15.089Z,7.50
2022-08-16T21:53:43.712Z,8.30
2022-08-16T21:56:16.650Z,8.60
2022-08-16T21:58:45.535Z,8.30
2022-08-16T22:01:12.416Z,8.07
2022-08-16T22:03:39.236Z,8.53
2022-08-16T22:06:12.053Z,9.33
2022-08-16T22:08:50.227Z,8.20
2022-08-16T22:11:22.138Z,9.60
2022-08-16T22:13:57.341Z,7.50
2022-08-16T22:16:28.049Z,8.73
2022-08-16T22:18:54.787Z,8.43
2022-08-16T22:21:21.857Z,9.40
2022-08-16T22:23:55.211Z,8.17
2022-08-16T22:26:31.696Z,8.40
2022-08-16T22:29:04.735Z,9.53
2022-08-16T22:31:32.193Z,8.47
2022-08-16T22:33:59.280Z,8.87
2022-08-16T22:36:28.131Z,8.30
2022-08-16T22:39:00.516Z,9.63
2022-08-16T22:41:28.610Z,9.27
2022-08-16T22:43:55.941Z,9.80
2022-08-16T22:46:23.205Z,9.37
2022-08-16T22:48:50.840Z,9.03
2022-08-16T22:51:20.486Z,9.60
2022-08-16T22:53:47.716Z,9.77
2022-08-16T22:56:16.888Z,8.70
2022-08-16T22:58:43.940Z,10.43
2022-08-16T23:01:13.057Z,10.93
2022-08-16T23:03:39.710Z,9.93
2022-08-16T23:06:07.434Z,9.47
2022-08-16T23:08:39.135Z,9.67
2022-08-16T23:11:08.919Z,11.07
2022-08-16T23:13:35.431Z,8.97
2022-08-16T23:16:11.268Z,12.07
2022-08-16T23:18:39.946Z,8.77
2022-08-16T23:21:10.130Z,11.73
2022-08-16T23:23:37.745Z,10.10
2022-08-16T23:26:46.192Z,10.80
2022-08-16T23:28:51.902Z,9.73
2022-08-16T23:31:19.369Z,10.67
2022-08-16T23:33:46.340Z,9.97
2022-08-16T23:36:13.655Z,10.83
2022-08-16T23:38:40.270Z,10.73
2022-08-16T23:41:11.428Z,10.90
2022-08-16T23:43:43.451Z,13.20
2022-08-16T23:46:16.984Z,10.50
2022-08-16T23:49:56.846Z,11.27
2022-08-16T23:51:31.253Z,9.93
2022-08-16T23:53:57.789Z,10.23
2022-08-16T23:56:25.559Z,9.93
2022-08-16T23:59:01.833Z,10.43
